sensor_id;sensor_type;location;lat;lon;timestamp;temperature;humidity
32097;DHT22;18610;49.916;8.284;2022-09-09T00:01:39;16.30;99.90
32097;DHT22;18610;49.916;8.284;2022-09-09T00:04:13;16.30;99.90
32097;DHT22;18610;49.916;8.284;2022-09-09T00:06:44;16.30;99.90
32097;DHT22;18610;49.916;8.284;2022-09-09T00:09:16;16.30;99.90
32097;DHT22;18610;49.916;8.284;2022-09-09T00:11:47;16.20;99.90
32097;DHT22;18610;49.916;8.284;2022-09-09T00:14:21;16.20;99.90
32097;DHT22;18610;49.916;8.284;2022-09-09T00:16:53;16.20;99.90
32097;DHT22;18610;49.916;8.284;2022-09-09T00:19:23;16.10;99.90
32097;DHT22;18610;49.916;8.284;2022-09-09T00:22:00;16.10;99.90
32097;DHT22;18610;49.916;8.284;2022-09-09T00:24:38;16.00;99.90
32097;DHT22;18610;49.916;8.284;2022-09-09T00:27:15;16.00;99.90
32097;DHT22;18610;49.916;8.284;2022-09-09T00:29:45;16.00;99.90
32097;DHT22;18610;49.916;8.284;2022-09-09T00:32:16;15.90;99.90
32097;DHT22;18610;49.916;8.284;2022-09-09T00:34:49;15.90;99.90
32097;DHT22;18610;49.916;8.284;2022-09-09T00:37:18;15.90;99.90
32097;DHT22;18610;49.916;8.284;2022-09-09T00:39:47;15.90;99.90
32097;DHT22;18610;49.916;8.284;2022-09-09T00:42:20;15.90;99.90
32097;DHT22;18610;49.916;8.284;2022-09-09T00:44:58;15.80;99.90
32097;DHT22;18610;49.916;8.284;2022-09-09T00:47:39;15.80;99.90
32097;DHT22;18610;49.916;8.284;2022-09-09T00:50:16;15.70;99.90
32097;DHT22;18610;49.916;8.284;2022-09-09T00:52:47;15.70;99.90
32097;DHT22;18610;49.916;8.284;2022-09-09T00:55:27;15.70;99.90
32097;DHT22;18610;49.916;8.284;2022-09-09T00:57:55;15.60;99.90
32097;DHT22;18610;49.916;8.284;2022-09-09T01:00:24;15.60;99.90
32097;DHT22;18610;49.916;8.284;2022-09-09T01:03:10;15.50;99.90
32097;DHT22;18610;49.916;8.284;2022-09-09T01:05:46;15.40;99.90
32097;DHT22;18610;49.916;8.284;2022-09-09T01:08:26;15.40;99.90
32097;DHT22;18610;49.916;8.284;2022-09-09T01:10:56;15.20;99.90
32097;DHT22;18610;49.916;8.284;2022-09-09T01:13:27;15.20;99.90
32097;DHT22;18610;49.916;8.284;2022-09-09T01:15:57;15.20;99.90
32097;DHT22;18610;49.916;8.284;2022-09-09T01:18:27;15.20;99.90
32097;DHT22;18610;49.916;8.284;2022-09-09T01:20:59;15.30;99.90
32097;DHT22;18610;49.916;8.284;2022-09-09T01:23:41;15.30;99.90
32097;DHT22;18610;49.916;8.284;2022-09-09T01:26:22;15.30;99.90
32097;DHT22;18610;49.916;8.284;2022-09-09T01:28:52;15.30;99.90
32097;DHT22;18610;49.916;8.284;2022-09-09T01:31:21;15.30;99.90
32097;DHT22;18610;49.916;8.284;2022-09-09T01:33:49;15.30;99.90
32097;DHT22;18610;49.916;8.284;2022-09-09T01:36:21;15.30;99.90
32097;DHT22;18610;49.916;8.284;2022-09-09T01:38:50;15.20;99.90
32097;DHT22;18610;49.916;8.284;2022-09-09T01:41:17;15.10;99.90
32097;DHT22;18610;49.916;8.284;2022-09-09T01:43:45;15.00;99.90
32097;DHT22;18610;49.916;8.284;2022-09-09T01:46:12;15.00;99.90
32097;DHT22;18610;49.916;8.284;2022-09-09T01:48:40;14.90;99.90
32097;DHT22;18610;49.916;8.284;2022-09-09T01:51:08;14.90;99.90
32097;DHT22;18610;49.916;8.284;2022-09-09T01:53:36;14.90;99.90
32097;DHT22;18610;49.916;8.284;2022-09-09T01:56:11;14.80;99.90
32097;DHT22;18610;49.916;8.284;2022-09-09T01:58:53;14.80;99.90
32097;DHT22;18610;49.916;8.284;2022-09-09T02:01:30;14.80;99.90
32097;DHT22;18610;49.916;8.284;2022-09-09T02:04:07;14.80;99.90
32097;DHT22;18610;49.916;8.284;2022-09-09T02:06:38;14.80;99.90
32097;DHT22;18610;49.916;8.284;2022-09-09T02:09:07;14.80;99.90
32097;DHT22;18610;49.916;8.284;2022-09-09T02:11:37;14.80;99.90
32097;DHT22;18610;49.916;8.284;2022-09-09T02:14:09;14.80;99.90
32097;DHT22;18610;49.916;8.284;2022-09-09T02:16:40;14.80;99.90
32097;DHT22;18610;49.916;8.284;2022-09-09T02:19:13;14.70;99.90
32097;DHT22;18610;49.916;8.284;2022-09-09T02:21:43;14.80;99.90
32097;DHT22;18610;49.916;8.284;2022-09-09T02:24:11;14.80;99.90
32097;DHT22;18610;49.916;8.284;2022-09-09T02:26:41;14.80;99.90
32097;DHT22;18610;49.916;8.284;2022-09-09T02:29:13;14.70;99.90
32097;DHT22;18610;49.916;8.284;2022-09-09T02:31:41;14.80;99.90
32097;DHT22;18610;49.916;8.284;2022-09-09T02:34:11;14.80;99.90
32097;DHT22;18610;49.916;8.284;2022-09-09T02:36:41;14.80;99.90
32097;DHT22;18610;49.916;8.284;2022-09-09T02:39:10;14.80;99.90
32097;DHT22;18610;49.916;8.284;2022-09-09T02:41:40;14.80;99.90
32097;DHT22;18610;49.916;8.284;2022-09-09T02:44:11;14.70;99.90
32097;DHT22;18610;49.916;8.284;2022-09-09T02:47:01;14.70;99.90
32097;DHT22;18610;49.916;8.284;2022-09-09T02:49:37;14.60;99.90
32097;DHT22;18610;49.916;8.284;2022-09-09T02:52:07;14.60;99.90
32097;DHT22;18610;49.916;8.284;2022-09-09T02:54:35;14.60;99.90
32097;DHT22;18610;49.916;8.284;2022-09-09T02:57:10;14.60;99.90
32097;DHT22;18610;49.916;8.284;2022-09-09T02:59:40;14.60;99.90
32097;DHT22;18610;49.916;8.284;2022-09-09T03:02:07;14.60;99.90
32097;DHT22;18610;49.916;8.284;2022-09-09T03:04:35;14.50;99.90
32097;DHT22;18610;49.916;8.284;2022-09-09T03:07:07;14.50;99.90
32097;DHT22;18610;49.916;8.284;2022-09-09T03:09:33;14.50;99.90
32097;DHT22;18610;49.916;8.284;2022-09-09T03:12:00;14.50;99.90
32097;DHT22;18610;49.916;8.284;2022-09-09T03:14:27;14.40;99.90
32097;DHT22;18610;49.916;8.284;2022-09-09T03:16:55;14.30;99.90
32097;DHT22;18610;49.916;8.284;2022-09-09T03:19:23;14.30;99.90
32097;DHT22;18610;49.916;8.284;2022-09-09T03:21:50;14.30;99.90
32097;DHT22;18610;49.916;8.284;2022-09-09T03:24:17;14.30;99.90
32097;DHT22;18610;49.916;8.284;2022-09-09T03:26:44;14.20;99.90
32097;DHT22;18610;49.916;8.284;2022-09-09T03:29:11;14.20;99.90
32097;DHT22;18610;49.916;8.284;2022-09-09T03:31:38;14.20;99.90
32097;DHT22;18610;49.916;8.284;2022-09-09T03:34:07;14.30;99.90
32097;DHT22;18610;49.916;8.284;2022-09-09T03:36:33;14.30;99.90
32097;DHT22;18610;49.916;8.284;2022-09-09T03:39:00;14.30;99.90
32097;DHT22;18610;49.916;8.284;2022-09-09T03:41:28;14.30;99.90
32097;DHT22;18610;49.916;8.284;2022-09-09T03:43:55;14.30;99.90
32097;DHT22;18610;49.916;8.284;2022-09-09T03:46:25;14.30;99.90
32097;DHT22;18610;49.916;8.284;2022-09-09T03:48:53;14.30;99.90
32097;DHT22;18610;49.916;8.284;2022-09-09T03:51:21;14.30;99.90
32097;DHT22;18610;49.916;8.284;2022-09-09T03:53:48;14.20;99.90
32097;DHT22;18610;49.916;8.284;2022-09-09T03:56:15;14.20;99.90
32097;DHT22;18610;49.916;8.284;2022-09-09T03:58:41;14.20;99.90
32097;DHT22;18610;49.916;8.284;2022-09-09T04:01:10;14.30;99.90
32097;DHT22;18610;49.916;8.284;2022-09-09T04:03:38;14.30;99.90
32097;DHT22;18610;49.916;8.284;2022-09-09T04:06:06;14.40;99.90
32097;DHT22;18610;49.916;8.284;2022-09-09T04:08:35;14.40;99.90
32097;DHT22;18610;49.916;8.284;2022-09-09T04:11:03;14.40;99.90
32097;DHT22;18610;49.916;8.284;2022-09-09T04:13:30;14.50;99.90
32097;DHT22;18610;49.916;8.284;2022-09-09T04:15:58;14.50;99.90
32097;DHT22;18610;49.916;8.284;2022-09-09T04:18:27;14.50;99.90
32097;DHT22;18610;49.916;8.284;2022-09-09T04:20:54;14.60;99.90
32097;DHT22;18610;49.916;8.284;2022-09-09T04:23:23;14.60;99.90
32097;DHT22;18610;49.916;8.284;2022-09-09T04:25:52;14.60;99.90
32097;DHT22;18610;49.916;8.284;2022-09-09T04:28:21;14.70;99.90
32097;DHT22;18610;49.916;8.284;2022-09-09T04:30:49;14.70;99.90
32097;DHT22;18610;49.916;8.284;2022-09-09T04:33:17;14.70;99.90
32097;DHT22;18610;49.916;8.284;2022-09-09T04:35:44;14.70;99.90
32097;DHT22;18610;49.916;8.284;2022-09-09T04:38:12;14.70;99.90
32097;DHT22;18610;49.916;8.284;2022-09-09T04:40:39;14.70;99.90
32097;DHT22;18610;49.916;8.284;2022-09-09T04:43:09;14.80;99.90
32097;DHT22;18610;49.916;8.284;2022-09-09T04:45:36;14.70;99.90
32097;DHT22;18610;49.916;8.284;2022-09-09T04:48:03;14.80;99.90
32097;DHT22;18610;49.916;8.284;2022-09-09T04:50:30;14.80;99.90
32097;DHT22;18610;49.916;8.284;2022-09-09T04:53:00;14.80;99.90
32097;DHT22;18610;49.916;8.284;2022-09-09T04:55:27;14.70;99.90
32097;DHT22;18610;49.916;8.284;2022-09-09T04:57:54;14.70;99.90
32097;DHT22;18610;49.916;8.284;2022-09-09T05:00:22;14.70;99.90
32097;DHT22;18610;49.916;8.284;2022-09-09T05:02:49;14.70;99.90
32097;DHT22;18610;49.916;8.284;2022-09-09T05:05:16;14.70;99.90
32097;DHT22;18610;49.916;8.284;2022-09-09T05:07:44;14.70;99.90
32097;DHT22;18610;49.916;8.284;2022-09-09T05:10:11;14.70;99.90
32097;DHT22;18610;49.916;8.284;2022-09-09T05:12:39;14.70;99.90
32097;DHT22;18610;49.916;8.284;2022-09-09T05:15:07;14.70;99.90
32097;DHT22;18610;49.916;8.284;2022-09-09T05:17:35;14.70;99.90
32097;DHT22;18610;49.916;8.284;2022-09-09T05:20:02;14.70;99.90
32097;DHT22;18610;49.916;8.284;2022-09-09T05:22:29;14.80;99.90
32097;DHT22;18610;49.916;8.284;2022-09-09T05:24:56;14.70;99.90
32097;DHT22;18610;49.916;8.284;2022-09-09T05:27:23;14.70;99.90
32097;DHT22;18610;49.916;8.284;2022-09-09T05:29:50;14.60;99.90
32097;DHT22;18610;49.916;8.284;2022-09-09T05:32:17;14.50;99.90
32097;DHT22;18610;49.916;8.284;2022-09-09T05:34:45;14.40;99.90
32097;DHT22;18610;49.916;8.284;2022-09-09T05:37:12;14.40;99.90
32097;DHT22;18610;49.916;8.284;2022-09-09T05:39:39;14.40;99.90
32097;DHT22;18610;49.916;8.284;2022-09-09T05:42:06;14.40;99.90
32097;DHT22;18610;49.916;8.284;2022-09-09T05:44:32;14.50;99.90
32097;DHT22;18610;49.916;8.284;2022-09-09T05:46:59;14.50;99.90
32097;DHT22;18610;49.916;8.284;2022-09-09T05:49:26;14.60;99.90
32097;DHT22;18610;49.916;8.284;2022-09-09T05:51:54;14.70;99.90
32097;DHT22;18610;49.916;8.284;2022-09-09T05:54:21;14.80;99.90
32097;DHT22;18610;49.916;8.284;2022-09-09T05:56:48;14.90;99.90
32097;DHT22;18610;49.916;8.284;2022-09-09T05:59:16;15.00;99.90
32097;DHT22;18610;49.916;8.284;2022-09-09T06:01:43;15.20;99.90
32097;DHT22;18610;49.916;8.284;2022-09-09T06:04:10;15.20;99.90
32097;DHT22;18610;49.916;8.284;2022-09-09T06:06:38;15.30;99.90
32097;DHT22;18610;49.916;8.284;2022-09-09T06:09:08;15.40;99.90
32097;DHT22;18610;49.916;8.284;2022-09-09T06:11:36;15.40;99.90
32097;DHT22;18610;49.916;8.284;2022-09-09T06:14:04;15.40;99.90
32097;DHT22;18610;49.916;8.284;2022-09-09T06:16:32;15.50;99.90
32097;DHT22;18610;49.916;8.284;2022-09-09T06:18:59;15.50;99.90
32097;DHT22;18610;49.916;8.284;2022-09-09T06:21:30;15.60;99.90
32097;DHT22;18610;49.916;8.284;2022-09-09T06:23:58;15.70;99.90
32097;DHT22;18610;49.916;8.284;2022-09-09T06:26:28;15.80;99.90
32097;DHT22;18610;49.916;8.284;2022-09-09T06:28:56;15.90;99.90
32097;DHT22;18610;49.916;8.284;2022-09-09T06:31:25;16.10;99.90
32097;DHT22;18610;49.916;8.284;2022-09-09T06:33:53;16.20;99.90
32097;DHT22;18610;49.916;8.284;2022-09-09T06:36:22;16.30;99.90
32097;DHT22;18610;49.916;8.284;2022-09-09T06:38:49;16.40;99.90
32097;DHT22;18610;49.916;8.284;2022-09-09T06:41:17;16.40;99.90
32097;DHT22;18610;49.916;8.284;2022-09-09T06:43:46;16.50;99.90
32097;DHT22;18610;49.916;8.284;2022-09-09T06:46:14;16.60;99.90
32097;DHT22;18610;49.916;8.284;2022-09-09T06:48:42;16.70;99.90
32097;DHT22;18610;49.916;8.284;2022-09-09T06:51:11;16.70;99.90
32097;DHT22;18610;49.916;8.284;2022-09-09T06:53:39;16.70;99.90
32097;DHT22;18610;49.916;8.284;2022-09-09T06:56:18;16.80;99.90
32097;DHT22;18610;49.916;8.284;2022-09-09T06:58:47;16.90;99.90
32097;DHT22;18610;49.916;8.284;2022-09-09T07:01:16;17.00;99.90
32097;DHT22;18610;49.916;8.284;2022-09-09T07:03:46;17.00;99.90
32097;DHT22;18610;49.916;8.284;2022-09-09T07:06:14;17.10;99.90
32097;DHT22;18610;49.916;8.284;2022-09-09T07:08:42;17.10;99.90
32097;DHT22;18610;49.916;8.284;2022-09-09T07:11:10;17.20;99.90
32097;DHT22;18610;49.916;8.284;2022-09-09T07:13:37;17.20;99.90
32097;DHT22;18610;49.916;8.284;2022-09-09T07:16:07;17.40;99.90
32097;DHT22;18610;49.916;8.284;2022-09-09T07:18:34;17.50;99.90
32097;DHT22;18610;49.916;8.284;2022-09-09T07:21:02;17.70;99.90
32097;DHT22;18610;49.916;8.284;2022-09-09T07:23:30;17.80;99.90
32097;DHT22;18610;49.916;8.284;2022-09-09T07:25:57;17.90;99.90
32097;DHT22;18610;49.916;8.284;2022-09-09T07:28:24;17.90;99.90
32097;DHT22;18610;49.916;8.284;2022-09-09T07:30:54;17.90;99.90
32097;DHT22;18610;49.916;8.284;2022-09-09T07:33:23;17.90;99.90
32097;DHT22;18610;49.916;8.284;2022-09-09T07:35:51;17.90;99.90
32097;DHT22;18610;49.916;8.284;2022-09-09T07:38:18;17.80;99.90
32097;DHT22;18610;49.916;8.284;2022-09-09T07:40:46;17.90;99.90
32097;DHT22;18610;49.916;8.284;2022-09-09T07:43:12;18.00;99.90
32097;DHT22;18610;49.916;8.284;2022-09-09T07:45:39;18.20;99.90
32097;DHT22;18610;49.916;8.284;2022-09-09T07:48:09;18.30;99.90
32097;DHT22;18610;49.916;8.284;2022-09-09T07:50:37;18.30;99.90
32097;DHT22;18610;49.916;8.284;2022-09-09T07:53:04;18.30;99.90
32097;DHT22;18610;49.916;8.284;2022-09-09T07:55:31;18.30;99.90
32097;DHT22;18610;49.916;8.284;2022-09-09T07:57:58;18.30;99.90
32097;DHT22;18610;49.916;8.284;2022-09-09T08:00:25;18.40;99.90
32097;DHT22;18610;49.916;8.284;2022-09-09T08:02:54;18.50;99.90
32097;DHT22;18610;49.916;8.284;2022-09-09T08:05:20;18.40;99.90
32097;DHT22;18610;49.916;8.284;2022-09-09T08:07:49;18.50;99.90
32097;DHT22;18610;49.916;8.284;2022-09-09T08:10:16;18.60;99.90
32097;DHT22;18610;49.916;8.284;2022-09-09T08:12:43;18.70;99.90
32097;DHT22;18610;49.916;8.284;2022-09-09T08:15:10;18.70;99.90
32097;DHT22;18610;49.916;8.284;2022-09-09T08:17:38;18.70;99.90
32097;DHT22;18610;49.916;8.284;2022-09-09T08:20:05;18.70;99.90
32097;DHT22;18610;49.916;8.284;2022-09-09T08:22:32;18.80;99.90
32097;DHT22;18610;49.916;8.284;2022-09-09T08:25:01;19.00;99.90
32097;DHT22;18610;49.916;8.284;2022-09-09T08:27:27;18.90;99.90
32097;DHT22;18610;49.916;8.284;2022-09-09T08:29:55;19.00;99.90
32097;DHT22;18610;49.916;8.284;2022-09-09T08:32:22;18.90;99.90
32097;DHT22;18610;49.916;8.284;2022-09-09T08:34:48;19.00;99.90
32097;DHT22;18610;49.916;8.284;2022-09-09T08:37:16;19.00;99.90
32097;DHT22;18610;49.916;8.284;2022-09-09T08:39:44;19.00;99.90
32097;DHT22;18610;49.916;8.284;2022-09-09T08:42:24;19.10;99.90
32097;DHT22;18610;49.916;8.284;2022-09-09T08:45:09;19.00;99.90
32097;DHT22;18610;49.916;8.284;2022-09-09T08:47:42;19.00;99.90
32097;DHT22;18610;49.916;8.284;2022-09-09T08:50:18;18.80;99.90
32097;DHT22;18610;49.916;8.284;2022-09-09T08:52:53;18.70;99.90
32097;DHT22;18610;49.916;8.284;2022-09-09T08:55:28;18.70;99.90
32097;DHT22;18610;49.916;8.284;2022-09-09T08:58:08;18.70;99.90
32097;DHT22;18610;49.916;8.284;2022-09-09T09:00:41;18.60;99.90
32097;DHT22;18610;49.916;8.284;2022-09-09T09:03:28;18.60;99.90
32097;DHT22;18610;49.916;8.284;2022-09-09T09:06:04;18.70;99.90
32097;DHT22;18610;49.916;8.284;2022-09-09T09:08:38;18.60;99.90
32097;DHT22;18610;49.916;8.284;2022-09-09T09:11:09;18.60;99.90
32097;DHT22;18610;49.916;8.284;2022-09-09T09:13:43;18.60;99.90
32097;DHT22;18610;49.916;8.284;2022-09-09T09:16:19;18.90;99.90
32097;DHT22;18610;49.916;8.284;2022-09-09T09:18:49;19.30;99.90
32097;DHT22;18610;49.916;8.284;2022-09-09T09:21:19;19.40;99.90
32097;DHT22;18610;49.916;8.284;2022-09-09T09:23:53;19.40;99.90
32097;DHT22;18610;49.916;8.284;2022-09-09T09:26:23;19.50;99.90
32097;DHT22;18610;49.916;8.284;2022-09-09T09:28:55;19.60;99.90
32097;DHT22;18610;49.916;8.284;2022-09-09T09:31:22;19.90;99.90
32097;DHT22;18610;49.916;8.284;2022-09-09T09:33:53;20.10;99.90
32097;DHT22;18610;49.916;8.284;2022-09-09T09:36:24;20.30;99.90
32097;DHT22;18610;49.916;8.284;2022-09-09T09:38:54;20.60;99.80
32097;DHT22;18610;49.916;8.284;2022-09-09T09:41:35;21.00;99.80
32097;DHT22;18610;49.916;8.284;2022-09-09T09:44:06;21.40;98.10
32097;DHT22;18610;49.916;8.284;2022-09-09T09:46:46;21.80;98.40
32097;DHT22;18610;49.916;8.284;2022-09-09T09:49:12;22.20;97.00
32097;DHT22;18610;49.916;8.284;2022-09-09T09:51:40;22.40;95.80
32097;DHT22;18610;49.916;8.284;2022-09-09T09:54:18;22.60;94.90
32097;DHT22;18610;49.916;8.284;2022-09-09T09:56:48;22.60;94.80
32097;DHT22;18610;49.916;8.284;2022-09-09T09:59:34;22.70;94.80
32097;DHT22;18610;49.916;8.284;2022-09-09T10:02:16;22.90;94.00
32097;DHT22;18610;49.916;8.284;2022-09-09T10:04:43;23.00;94.20
32097;DHT22;18610;49.916;8.284;2022-09-09T10:07:11;23.20;93.60
32097;DHT22;18610;49.916;8.284;2022-09-09T10:09:38;22.90;94.00
32097;DHT22;18610;49.916;8.284;2022-09-09T10:12:15;22.70;92.70
32097;DHT22;18610;49.916;8.284;2022-09-09T10:14:53;22.40;93.60
32097;DHT22;18610;49.916;8.284;2022-09-09T10:17:28;22.10;93.10
32097;DHT22;18610;49.916;8.284;2022-09-09T10:20:04;21.90;93.30
32097;DHT22;18610;49.916;8.284;2022-09-09T10:22:34;21.80;93.00
32097;DHT22;18610;49.916;8.284;2022-09-09T10:25:31;21.50;93.30
32097;DHT22;18610;49.916;8.284;2022-09-09T10:31:02;21.30;94.40
32097;DHT22;18610;49.916;8.284;2022-09-09T10:33:35;21.30;94.70
32097;DHT22;18610;49.916;8.284;2022-09-09T10:36:11;21.40;93.90
32097;DHT22;18610;49.916;8.284;2022-09-09T10:38:40;21.70;93.60
32097;DHT22;18610;49.916;8.284;2022-09-09T10:41:16;22.00;93.70
32097;DHT22;18610;49.916;8.284;2022-09-09T10:44:10;22.30;93.60
32097;DHT22;18610;49.916;8.284;2022-09-09T10:46:52;22.30;92.90
32097;DHT22;18610;49.916;8.284;2022-09-09T10:49:34;22.10;92.60
32097;DHT22;18610;49.916;8.284;2022-09-09T10:52:07;22.00;92.80
32097;DHT22;18610;49.916;8.284;2022-09-09T10:54:50;21.80;92.80
32097;DHT22;18610;49.916;8.284;2022-09-09T10:57:22;21.60;93.50
32097;DHT22;18610;49.916;8.284;2022-09-09T10:59:56;21.60;93.40
32097;DHT22;18610;49.916;8.284;2022-09-09T11:02:27;21.50;93.50
32097;DHT22;18610;49.916;8.284;2022-09-09T11:04:58;21.70;93.60
32097;DHT22;18610;49.916;8.284;2022-09-09T11:07:33;22.10;92.70
32097;DHT22;18610;49.916;8.284;2022-09-09T11:10:03;22.50;91.90
32097;DHT22;18610;49.916;8.284;2022-09-09T11:12:34;23.00;91.80
32097;DHT22;18610;49.916;8.284;2022-09-09T11:15:06;23.20;89.50
32097;DHT22;18610;49.916;8.284;2022-09-09T11:17:43;22.90;86.70
32097;DHT22;18610;49.916;8.284;2022-09-09T11:20:13;22.60;88.20
32097;DHT22;18610;49.916;8.284;2022-09-09T11:22:46;22.50;89.90
32097;DHT22;18610;49.916;8.284;2022-09-09T11:25:16;22.40;90.30
32097;DHT22;18610;49.916;8.284;2022-09-09T11:27:54;22.30;90.90
32097;DHT22;18610;49.916;8.284;2022-09-09T11:30:31;22.30;91.50
32097;DHT22;18610;49.916;8.284;2022-09-09T11:33:24;22.00;92.30
32097;DHT22;18610;49.916;8.284;2022-09-09T11:36:04;21.90;92.90
32097;DHT22;18610;49.916;8.284;2022-09-09T11:38:39;21.90;92.50
32097;DHT22;18610;49.916;8.284;2022-09-09T11:41:09;22.00;93.10
32097;DHT22;18610;49.916;8.284;2022-09-09T11:43:40;22.10;92.00
32097;DHT22;18610;49.916;8.284;2022-09-09T11:46:08;22.20;92.00
32097;DHT22;18610;49.916;8.284;2022-09-09T11:48:39;22.20;91.00
32097;DHT22;18610;49.916;8.284;2022-09-09T11:51:10;22.20;90.80
32097;DHT22;18610;49.916;8.284;2022-09-09T11:53:48;22.10;90.50
32097;DHT22;18610;49.916;8.284;2022-09-09T11:56:25;21.90;90.70
32097;DHT22;18610;49.916;8.284;2022-09-09T11:58:57;21.70;91.30
32097;DHT22;18610;49.916;8.284;2022-09-09T12:01:37;21.60;91.50
32097;DHT22;18610;49.916;8.284;2022-09-09T12:04:21;21.30;91.70
32097;DHT22;18610;49.916;8.284;2022-09-09T12:06:56;21.10;92.40
32097;DHT22;18610;49.916;8.284;2022-09-09T12:09:38;21.00;92.40
32097;DHT22;18610;49.916;8.284;2022-09-09T12:12:22;20.90;92.10
32097;DHT22;18610;49.916;8.284;2022-09-09T12:14:59;20.80;93.50
32097;DHT22;18610;49.916;8.284;2022-09-09T12:17:28;20.60;95.20
32097;DHT22;18610;49.916;8.284;2022-09-09T12:20:12;20.30;95.80
32097;DHT22;18610;49.916;8.284;2022-09-09T12:22:55;20.20;96.10
32097;DHT22;18610;49.916;8.284;2022-09-09T12:25:32;20.00;95.50
32097;DHT22;18610;49.916;8.284;2022-09-09T12:28:09;19.80;95.20
32097;DHT22;18610;49.916;8.284;2022-09-09T12:30:44;19.60;96.60
32097;DHT22;18610;49.916;8.284;2022-09-09T12:33:17;19.40;97.50
32097;DHT22;18610;49.916;8.284;2022-09-09T12:35:51;19.10;97.80
32097;DHT22;18610;49.916;8.284;2022-09-09T12:38:26;18.70;98.20
32097;DHT22;18610;49.916;8.284;2022-09-09T12:40:56;18.50;99.30
32097;DHT22;18610;49.916;8.284;2022-09-09T12:43:25;18.30;99.90
32097;DHT22;18610;49.916;8.284;2022-09-09T12:45:56;18.00;99.90
32097;DHT22;18610;49.916;8.284;2022-09-09T12:48:29;17.80;99.90
32097;DHT22;18610;49.916;8.284;2022-09-09T12:50:59;17.70;99.90
32097;DHT22;18610;49.916;8.284;2022-09-09T12:53:29;17.50;99.90
32097;DHT22;18610;49.916;8.284;2022-09-09T12:55:58;17.40;99.90
32097;DHT22;18610;49.916;8.284;2022-09-09T12:58:26;17.50;99.90
32097;DHT22;18610;49.916;8.284;2022-09-09T13:00:59;17.60;99.90
32097;DHT22;18610;49.916;8.284;2022-09-09T13:03:27;17.60;99.90
32097;DHT22;18610;49.916;8.284;2022-09-09T13:05:59;17.70;99.90
32097;DHT22;18610;49.916;8.284;2022-09-09T13:08:36;17.80;99.90
32097;DHT22;18610;49.916;8.284;2022-09-09T13:11:06;18.00;99.90
32097;DHT22;18610;49.916;8.284;2022-09-09T13:13:36;18.30;99.90
32097;DHT22;18610;49.916;8.284;2022-09-09T13:16:05;18.60;99.90
32097;DHT22;18610;49.916;8.284;2022-09-09T13:18:35;19.10;99.90
32097;DHT22;18610;49.916;8.284;2022-09-09T13:21:06;19.80;99.90
32097;DHT22;18610;49.916;8.284;2022-09-09T13:23:34;20.60;99.20
32097;DHT22;18610;49.916;8.284;2022-09-09T13:26:03;21.00;98.00
32097;DHT22;18610;49.916;8.284;2022-09-09T13:28:32;21.40;96.80
32097;DHT22;18610;49.916;8.284;2022-09-09T13:31:00;21.80;95.60
32097;DHT22;18610;49.916;8.284;2022-09-09T13:33:32;21.90;94.90
32097;DHT22;18610;49.916;8.284;2022-09-09T13:36:03;21.80;95.00
32097;DHT22;18610;49.916;8.284;2022-09-09T13:38:33;21.70;95.30
32097;DHT22;18610;49.916;8.284;2022-09-09T13:41:03;21.50;95.60
32097;DHT22;18610;49.916;8.284;2022-09-09T13:43:34;21.20;96.10
32097;DHT22;18610;49.916;8.284;2022-09-09T13:46:03;21.00;97.00
32097;DHT22;18610;49.916;8.284;2022-09-09T13:48:30;20.80;97.30
32097;DHT22;18610;49.916;8.284;2022-09-09T13:51:00;20.70;96.80
32097;DHT22;18610;49.916;8.284;2022-09-09T13:53:27;20.70;97.30
32097;DHT22;18610;49.916;8.284;2022-09-09T13:55:55;20.50;97.40
32097;DHT22;18610;49.916;8.284;2022-09-09T13:58:23;20.40;97.90
32097;DHT22;18610;49.916;8.284;2022-09-09T14:00:51;20.50;98.20
32097;DHT22;18610;49.916;8.284;2022-09-09T14:03:18;20.60;98.30
32097;DHT22;18610;49.916;8.284;2022-09-09T14:05:45;20.60;98.30
32097;DHT22;18610;49.916;8.284;2022-09-09T14:08:20;20.60;97.90
32097;DHT22;18610;49.916;8.284;2022-09-09T14:10:47;20.50;98.00
32097;DHT22;18610;49.916;8.284;2022-09-09T14:13:15;20.40;98.10
32097;DHT22;18610;49.916;8.284;2022-09-09T14:15:42;20.30;98.50
32097;DHT22;18610;49.916;8.284;2022-09-09T14:18:11;20.20;98.30
32097;DHT22;18610;49.916;8.284;2022-09-09T14:20:38;20.20;98.20
32097;DHT22;18610;49.916;8.284;2022-09-09T14:23:05;20.10;98.70
32097;DHT22;18610;49.916;8.284;2022-09-09T14:25:32;20.00;98.60
32097;DHT22;18610;49.916;8.284;2022-09-09T14:27:58;20.00;99.00
32097;DHT22;18610;49.916;8.284;2022-09-09T14:30:27;19.90;99.70
32097;DHT22;18610;49.916;8.284;2022-09-09T14:32:53;19.80;99.80
32097;DHT22;18610;49.916;8.284;2022-09-09T14:35:20;19.70;99.90
32097;DHT22;18610;49.916;8.284;2022-09-09T14:37:47;19.60;99.90
32097;DHT22;18610;49.916;8.284;2022-09-09T14:40:14;19.60;99.90
32097;DHT22;18610;49.916;8.284;2022-09-09T14:42:42;19.50;99.90
32097;DHT22;18610;49.916;8.284;2022-09-09T14:45:09;19.50;99.90
32097;DHT22;18610;49.916;8.284;2022-09-09T14:47:38;19.50;99.90
32097;DHT22;18610;49.916;8.284;2022-09-09T14:50:05;19.40;99.90
32097;DHT22;18610;49.916;8.284;2022-09-09T14:52:33;19.50;99.90
32097;DHT22;18610;49.916;8.284;2022-09-09T14:55:00;19.40;99.90
32097;DHT22;18610;49.916;8.284;2022-09-09T14:57:27;19.40;99.90
32097;DHT22;18610;49.916;8.284;2022-09-09T14:59:54;19.40;99.90
32097;DHT22;18610;49.916;8.284;2022-09-09T15:02:22;19.50;99.90
32097;DHT22;18610;49.916;8.284;2022-09-09T15:04:50;19.60;99.90
32097;DHT22;18610;49.916;8.284;2022-09-09T15:07:18;19.80;99.90
32097;DHT22;18610;49.916;8.284;2022-09-09T15:09:44;19.80;99.90
32097;DHT22;18610;49.916;8.284;2022-09-09T15:12:13;19.80;99.90
32097;DHT22;18610;49.916;8.284;2022-09-09T15:14:40;19.80;99.90
32097;DHT22;18610;49.916;8.284;2022-09-09T15:17:08;19.80;99.90
32097;DHT22;18610;49.916;8.284;2022-09-09T15:19:34;19.80;99.90
32097;DHT22;18610;49.916;8.284;2022-09-09T15:22:03;19.80;99.90
32097;DHT22;18610;49.916;8.284;2022-09-09T15:24:31;19.60;99.90
32097;DHT22;18610;49.916;8.284;2022-09-09T15:26:58;19.50;99.90
32097;DHT22;18610;49.916;8.284;2022-09-09T15:29:25;19.40;99.90
32097;DHT22;18610;49.916;8.284;2022-09-09T15:31:53;19.40;99.90
32097;DHT22;18610;49.916;8.284;2022-09-09T15:34:20;19.40;99.90
32097;DHT22;18610;49.916;8.284;2022-09-09T15:36:47;19.40;99.90
32097;DHT22;18610;49.916;8.284;2022-09-09T15:39:17;19.40;99.90
32097;DHT22;18610;49.916;8.284;2022-09-09T15:41:45;19.40;99.90
32097;DHT22;18610;49.916;8.284;2022-09-09T15:44:13;19.30;99.90
32097;DHT22;18610;49.916;8.284;2022-09-09T15:46:44;19.30;99.90
32097;DHT22;18610;49.916;8.284;2022-09-09T15:49:12;19.30;99.90
32097;DHT22;18610;49.916;8.284;2022-09-09T15:51:41;19.20;99.90
32097;DHT22;18610;49.916;8.284;2022-09-09T15:54:09;19.20;99.90